sensor_id;sensor_type;location;lat;lon;timestamp;P1;durP1;ratioP1;P2;durP2;ratioP2
3355;SDS011;1691;52.486;13.374;2023-07-31T00:02:18;2.73;;;1.83;;
3355;SDS011;1691;52.486;13.374;2023-07-31T00:04:45;2.17;;;1.97;;
3355;SDS011;1691;52.486;13.374;2023-07-31T00:07:12;3.57;;;2.17;;
3355;SDS011;1691;52.486;13.374;2023-07-31T00:09:39;4.73;;;2.10;;
3355;SDS011;1691;52.486;13.374;2023-07-31T00:12:06;2.53;;;2.10;;
3355;SDS011;1691;52.486;13.374;2023-07-31T00:14:33;2.53;;;2.20;;
3355;SDS011;1691;52.486;13.374;2023-07-31T00:17:01;21.77;;;3.13;;
3355;SDS011;1691;52.486;13.374;2023-07-31T00:19:27;3.93;;;2.30;;
3355;SDS011;1691;52.486;13.374;2023-07-31T00:21:54;2.47;;;2.27;;
3355;SDS011;1691;52.486;13.374;2023-07-31T00:24:21;4.07;;;2.37;;
3355;SDS011;1691;52.486;13.374;2023-07-31T00:26:48;3.07;;;1.87;;
3355;SDS011;1691;52.486;13.374;2023-07-31T00:29:15;7.20;;;1.97;;
3355;SDS011;1691;52.486;13.374;2023-07-31T00:31:41;4.47;;;2.30;;
3355;SDS011;1691;52.486;13.374;2023-07-31T00:34:08;2.13;;;2.00;;
3355;SDS011;1691;52.486;13.374;2023-07-31T00:36:35;3.87;;;2.20;;
3355;SDS011;1691;52.486;13.374;2023-07-31T00:39:03;2.90;;;2.47;;
3355;SDS011;1691;52.486;13.374;2023-07-31T00:41:30;3.20;;;2.03;;
3355;SDS011;1691;52.486;13.374;2023-07-31T00:43:57;5.20;;;2.33;;
3355;SDS011;1691;52.486;13.374;2023-07-31T00:46:24;3.00;;;2.23;;
3355;SDS011;1691;52.486;13.374;2023-07-31T00:48:51;4.07;;;2.43;;
3355;SDS011;1691;52.486;13.374;2023-07-31T00:51:18;2.80;;;2.60;;
3355;SDS011;1691;52.486;13.374;2023-07-31T00:53:45;2.77;;;2.53;;
3355;SDS011;1691;52.486;13.374;2023-07-31T00:56:12;5.00;;;2.30;;
3355;SDS011;1691;52.486;13.374;2023-07-31T00:58:39;5.33;;;2.70;;
3355;SDS011;1691;52.486;13.374;2023-07-31T01:01:07;2.70;;;2.60;;
3355;SDS011;1691;52.486;13.374;2023-07-31T01:03:33;4.80;;;4.30;;
3355;SDS011;1691;52.486;13.374;2023-07-31T01:11:24;2.97;;;2.77;;
3355;SDS011;1691;52.486;13.374;2023-07-31T01:13:57;2.63;;;2.27;;
3355;SDS011;1691;52.486;13.374;2023-07-31T01:16:25;7.23;;;2.33;;
3355;SDS011;1691;52.486;13.374;2023-07-31T01:18:53;4.03;;;2.47;;
3355;SDS011;1691;52.486;13.374;2023-07-31T01:26:35;2.50;;;2.30;;
3355;SDS011;1691;52.486;13.374;2023-07-31T01:31:40;7.40;;;2.10;;
3355;SDS011;1691;52.486;13.374;2023-07-31T01:34:08;4.73;;;2.90;;
3355;SDS011;1691;52.486;13.374;2023-07-31T01:36:37;5.00;;;2.47;;
3355;SDS011;1691;52.486;13.374;2023-07-31T01:39:04;3.23;;;2.70;;
3355;SDS011;1691;52.486;13.374;2023-07-31T01:41:31;8.63;;;2.80;;
3355;SDS011;1691;52.486;13.374;2023-07-31T01:43:58;4.57;;;3.37;;
3355;SDS011;1691;52.486;13.374;2023-07-31T01:46:25;2.87;;;2.67;;
3355;SDS011;1691;52.486;13.374;2023-07-31T01:48:52;5.30;;;2.50;;
3355;SDS011;1691;52.486;13.374;2023-07-31T01:51:19;2.70;;;2.43;;
3355;SDS011;1691;52.486;13.374;2023-07-31T01:53:46;2.70;;;2.50;;
3355;SDS011;1691;52.486;13.374;2023-07-31T01:56:12;2.40;;;2.30;;
3355;SDS011;1691;52.486;13.374;2023-07-31T01:58:39;3.97;;;2.80;;
3355;SDS011;1691;52.486;13.374;2023-07-31T02:01:06;2.57;;;2.37;;
3355;SDS011;1691;52.486;13.374;2023-07-31T02:03:33;3.87;;;2.83;;
3355;SDS011;1691;52.486;13.374;2023-07-31T02:06:00;6.13;;;2.73;;
3355;SDS011;1691;52.486;13.374;2023-07-31T02:08:27;3.23;;;2.37;;
3355;SDS011;1691;52.486;13.374;2023-07-31T02:10:54;4.00;;;2.97;;
3355;SDS011;1691;52.486;13.374;2023-07-31T02:13:20;4.63;;;2.77;;
3355;SDS011;1691;52.486;13.374;2023-07-31T02:15:47;5.33;;;2.47;;
3355;SDS011;1691;52.486;13.374;2023-07-31T02:18:14;7.53;;;2.70;;
3355;SDS011;1691;52.486;13.374;2023-07-31T02:20:41;7.90;;;3.33;;
3355;SDS011;1691;52.486;13.374;2023-07-31T02:23:08;3.67;;;2.70;;
3355;SDS011;1691;52.486;13.374;2023-07-31T02:25:35;13.17;;;4.07;;
3355;SDS011;1691;52.486;13.374;2023-07-31T02:28:02;3.07;;;2.97;;
3355;SDS011;1691;52.486;13.374;2023-07-31T02:30:29;5.43;;;3.20;;
3355;SDS011;1691;52.486;13.374;2023-07-31T02:32:55;5.30;;;3.03;;
3355;SDS011;1691;52.486;13.374;2023-07-31T02:35:23;5.60;;;3.90;;
3355;SDS011;1691;52.486;13.374;2023-07-31T02:37:49;5.70;;;2.97;;
3355;SDS011;1691;52.486;13.374;2023-07-31T02:40:16;3.93;;;3.27;;
3355;SDS011;1691;52.486;13.374;2023-07-31T02:42:43;3.60;;;3.10;;
3355;SDS011;1691;52.486;13.374;2023-07-31T02:45:10;3.73;;;3.10;;
3355;SDS011;1691;52.486;13.374;2023-07-31T02:47:37;21.57;;;4.60;;
3355;SDS011;1691;52.486;13.374;2023-07-31T02:50:04;10.03;;;3.57;;
3355;SDS011;1691;52.486;13.374;2023-07-31T02:52:31;4.43;;;2.80;;
3355;SDS011;1691;52.486;13.374;2023-07-31T02:54:58;4.10;;;3.30;;
3355;SDS011;1691;52.486;13.374;2023-07-31T02:57:25;4.03;;;3.73;;
3355;SDS011;1691;52.486;13.374;2023-07-31T02:59:52;5.23;;;4.13;;
3355;SDS011;1691;52.486;13.374;2023-07-31T03:02:18;9.13;;;3.97;;
3355;SDS011;1691;52.486;13.374;2023-07-31T03:04:46;6.33;;;3.70;;
3355;SDS011;1691;52.486;13.374;2023-07-31T03:07:12;7.17;;;4.63;;
3355;SDS011;1691;52.486;13.374;2023-07-31T03:09:39;4.27;;;3.97;;
3355;SDS011;1691;52.486;13.374;2023-07-31T03:12:06;4.27;;;3.83;;
3355;SDS011;1691;52.486;13.374;2023-07-31T03:14:34;6.57;;;4.30;;
3355;SDS011;1691;52.486;13.374;2023-07-31T03:17:00;6.03;;;4.87;;
3355;SDS011;1691;52.486;13.374;2023-07-31T03:19:29;6.30;;;4.97;;
3355;SDS011;1691;52.486;13.374;2023-07-31T03:21:58;8.63;;;4.90;;
3355;SDS011;1691;52.486;13.374;2023-07-31T03:24:25;4.77;;;4.27;;
3355;SDS011;1691;52.486;13.374;2023-07-31T03:26:52;12.00;;;4.50;;
3355;SDS011;1691;52.486;13.374;2023-07-31T03:29:19;9.37;;;4.60;;
3355;SDS011;1691;52.486;13.374;2023-07-31T03:31:49;5.47;;;3.80;;
3355;SDS011;1691;52.486;13.374;2023-07-31T03:34:16;4.10;;;3.63;;
3355;SDS011;1691;52.486;13.374;2023-07-31T03:36:43;5.47;;;4.50;;
3355;SDS011;1691;52.486;13.374;2023-07-31T03:39:10;5.53;;;4.30;;
3355;SDS011;1691;52.486;13.374;2023-07-31T03:41:37;6.13;;;4.30;;
3355;SDS011;1691;52.486;13.374;2023-07-31T03:44:04;5.63;;;5.00;;
3355;SDS011;1691;52.486;13.374;2023-07-31T03:46:31;7.80;;;3.80;;
3355;SDS011;1691;52.486;13.374;2023-07-31T03:48:58;4.50;;;4.20;;
3355;SDS011;1691;52.486;13.374;2023-07-31T03:51:25;22.03;;;4.80;;
3355;SDS011;1691;52.486;13.374;2023-07-31T03:53:52;5.90;;;5.40;;
3355;SDS011;1691;52.486;13.374;2023-07-31T03:56:19;9.03;;;4.20;;
3355;SDS011;1691;52.486;13.374;2023-07-31T03:58:46;15.33;;;4.93;;
3355;SDS011;1691;52.486;13.374;2023-07-31T04:01:13;9.23;;;4.20;;
3355;SDS011;1691;52.486;13.374;2023-07-31T04:03:39;7.27;;;4.73;;
3355;SDS011;1691;52.486;13.374;2023-07-31T04:06:06;12.60;;;4.30;;
3355;SDS011;1691;52.486;13.374;2023-07-31T04:08:34;4.40;;;4.10;;
3355;SDS011;1691;52.486;13.374;2023-07-31T04:11:00;4.73;;;4.23;;
3355;SDS011;1691;52.486;13.374;2023-07-31T04:13:29;9.20;;;4.90;;
3355;SDS011;1691;52.486;13.374;2023-07-31T04:15:56;6.93;;;5.90;;
3355;SDS011;1691;52.486;13.374;2023-07-31T04:18:24;4.40;;;4.10;;
3355;SDS011;1691;52.486;13.374;2023-07-31T04:20:51;4.50;;;4.10;;
3355;SDS011;1691;52.486;13.374;2023-07-31T04:23:18;7.80;;;3.97;;
3355;SDS011;1691;52.486;13.374;2023-07-31T04:25:45;8.40;;;3.83;;
3355;SDS011;1691;52.486;13.374;2023-07-31T04:28:12;4.23;;;3.83;;
3355;SDS011;1691;52.486;13.374;2023-07-31T04:30:39;5.10;;;4.07;;
3355;SDS011;1691;52.486;13.374;2023-07-31T04:33:06;16.40;;;4.20;;
3355;SDS011;1691;52.486;13.374;2023-07-31T04:35:33;4.60;;;3.83;;
3355;SDS011;1691;52.486;13.374;2023-07-31T04:37:59;6.03;;;3.80;;
3355;SDS011;1691;52.486;13.374;2023-07-31T04:40:27;5.83;;;3.90;;
3355;SDS011;1691;52.486;13.374;2023-07-31T04:42:54;5.17;;;4.67;;
3355;SDS011;1691;52.486;13.374;2023-07-31T04:45:20;5.13;;;3.90;;
3355;SDS011;1691;52.486;13.374;2023-07-31T04:47:47;19.13;;;3.97;;
3355;SDS011;1691;52.486;13.374;2023-07-31T04:50:14;13.23;;;4.53;;
3355;SDS011;1691;52.486;13.374;2023-07-31T04:52:41;7.27;;;4.30;;
3355;SDS011;1691;52.486;13.374;2023-07-31T04:55:08;6.70;;;3.90;;
3355;SDS011;1691;52.486;13.374;2023-07-31T04:57:35;4.23;;;3.63;;
3355;SDS011;1691;52.486;13.374;2023-07-31T05:00:02;10.63;;;4.47;;
3355;SDS011;1691;52.486;13.374;2023-07-31T05:02:29;8.10;;;4.33;;
3355;SDS011;1691;52.486;13.374;2023-07-31T05:04:56;4.00;;;3.77;;
3355;SDS011;1691;52.486;13.374;2023-07-31T05:07:23;6.27;;;5.00;;
3355;SDS011;1691;52.486;13.374;2023-07-31T05:09:50;7.17;;;5.03;;
3355;SDS011;1691;52.486;13.374;2023-07-31T05:12:17;6.77;;;3.93;;
3355;SDS011;1691;52.486;13.374;2023-07-31T05:14:44;11.07;;;4.77;;
3355;SDS011;1691;52.486;13.374;2023-07-31T05:17:11;6.63;;;5.83;;
3355;SDS011;1691;52.486;13.374;2023-07-31T05:19:37;4.77;;;3.87;;
3355;SDS011;1691;52.486;13.374;2023-07-31T05:22:04;4.17;;;3.77;;
3355;SDS011;1691;52.486;13.374;2023-07-31T05:24:31;7.30;;;3.00;;
3355;SDS011;1691;52.486;13.374;2023-07-31T05:26:59;4.80;;;4.10;;
3355;SDS011;1691;52.486;13.374;2023-07-31T05:29:26;8.80;;;4.20;;
3355;SDS011;1691;52.486;13.374;2023-07-31T05:31:53;8.23;;;7.53;;
3355;SDS011;1691;52.486;13.374;2023-07-31T05:34:20;14.40;;;9.20;;
3355;SDS011;1691;52.486;13.374;2023-07-31T05:36:47;6.70;;;5.27;;
3355;SDS011;1691;52.486;13.374;2023-07-31T05:39:14;16.87;;;10.37;;
3355;SDS011;1691;52.486;13.374;2023-07-31T05:41:41;15.53;;;4.10;;
3355;SDS011;1691;52.486;13.374;2023-07-31T05:44:07;9.30;;;3.57;;
3355;SDS011;1691;52.486;13.374;2023-07-31T05:46:34;5.53;;;3.70;;
3355;SDS011;1691;52.486;13.374;2023-07-31T05:49:01;5.60;;;4.17;;
3355;SDS011;1691;52.486;13.374;2023-07-31T05:51:28;6.93;;;3.60;;
3355;SDS011;1691;52.486;13.374;2023-07-31T05:53:55;8.83;;;3.50;;
3355;SDS011;1691;52.486;13.374;2023-07-31T05:56:22;3.80;;;3.50;;
3355;SDS011;1691;52.486;13.374;2023-07-31T05:58:49;6.17;;;3.87;;
3355;SDS011;1691;52.486;13.374;2023-07-31T06:01:16;3.83;;;3.13;;
3355;SDS011;1691;52.486;13.374;2023-07-31T06:03:43;9.53;;;3.30;;
3355;SDS011;1691;52.486;13.374;2023-07-31T06:06:11;12.77;;;2.50;;
3355;SDS011;1691;52.486;13.374;2023-07-31T06:08:38;11.30;;;3.67;;
3355;SDS011;1691;52.486;13.374;2023-07-31T06:11:04;7.03;;;3.77;;
3355;SDS011;1691;52.486;13.374;2023-07-31T06:13:32;3.63;;;3.13;;
3355;SDS011;1691;52.486;13.374;2023-07-31T06:15:58;4.67;;;3.10;;
3355;SDS011;1691;52.486;13.374;2023-07-31T06:18:26;10.70;;;2.63;;
3355;SDS011;1691;52.486;13.374;2023-07-31T06:20:53;5.40;;;3.10;;
3355;SDS011;1691;52.486;13.374;2023-07-31T06:23:20;6.20;;;3.23;;
3355;SDS011;1691;52.486;13.374;2023-07-31T06:25:47;8.20;;;3.33;;
3355;SDS011;1691;52.486;13.374;2023-07-31T06:28:14;3.50;;;2.60;;
3355;SDS011;1691;52.486;13.374;2023-07-31T06:30:41;7.60;;;2.37;;
3355;SDS011;1691;52.486;13.374;2023-07-31T06:33:08;10.90;;;3.20;;
3355;SDS011;1691;52.486;13.374;2023-07-31T06:35:35;5.80;;;2.70;;
3355;SDS011;1691;52.486;13.374;2023-07-31T06:38:02;7.03;;;2.30;;
3355;SDS011;1691;52.486;13.374;2023-07-31T06:40:29;12.73;;;9.17;;
3355;SDS011;1691;52.486;13.374;2023-07-31T06:42:56;9.30;;;8.30;;
3355;SDS011;1691;52.486;13.374;2023-07-31T06:45:23;2.93;;;2.20;;
3355;SDS011;1691;52.486;13.374;2023-07-31T06:47:50;6.43;;;2.53;;
3355;SDS011;1691;52.486;13.374;2023-07-31T06:50:17;8.00;;;2.60;;
3355;SDS011;1691;52.486;13.374;2023-07-31T06:52:44;9.10;;;3.30;;
3355;SDS011;1691;52.486;13.374;2023-07-31T06:55:20;4.63;;;2.47;;
3355;SDS011;1691;52.486;13.374;2023-07-31T06:57:51;2.70;;;2.03;;
3355;SDS011;1691;52.486;13.374;2023-07-31T07:00:19;7.13;;;2.20;;
3355;SDS011;1691;52.486;13.374;2023-07-31T07:02:47;6.70;;;2.90;;
3355;SDS011;1691;52.486;13.374;2023-07-31T07:05:15;5.97;;;2.80;;
3355;SDS011;1691;52.486;13.374;2023-07-31T07:07:43;4.23;;;2.63;;
3355;SDS011;1691;52.486;13.374;2023-07-31T07:10:10;2.90;;;2.53;;
3355;SDS011;1691;52.486;13.374;2023-07-31T07:12:37;3.97;;;3.10;;
3355;SDS011;1691;52.486;13.374;2023-07-31T07:15:04;7.30;;;3.00;;
3355;SDS011;1691;52.486;13.374;2023-07-31T07:17:31;5.13;;;2.70;;
3355;SDS011;1691;52.486;13.374;2023-07-31T07:19:58;2.83;;;2.50;;
3355;SDS011;1691;52.486;13.374;2023-07-31T07:22:27;8.70;;;2.93;;
3355;SDS011;1691;52.486;13.374;2023-07-31T07:24:54;4.10;;;2.97;;
3355;SDS011;1691;52.486;13.374;2023-07-31T07:27:21;4.67;;;2.10;;
3355;SDS011;1691;52.486;13.374;2023-07-31T07:29:50;4.93;;;2.80;;
3355;SDS011;1691;52.486;13.374;2023-07-31T07:32:20;3.73;;;3.00;;
3355;SDS011;1691;52.486;13.374;2023-07-31T07:34:47;2.70;;;2.50;;
3355;SDS011;1691;52.486;13.374;2023-07-31T07:37:15;15.87;;;2.60;;
3355;SDS011;1691;52.486;13.374;2023-07-31T07:39:42;6.30;;;2.30;;
3355;SDS011;1691;52.486;13.374;2023-07-31T07:42:09;2.23;;;1.87;;
3355;SDS011;1691;52.486;13.374;2023-07-31T07:44:36;9.90;;;2.30;;
3355;SDS011;1691;52.486;13.374;2023-07-31T07:47:03;5.33;;;2.60;;
3355;SDS011;1691;52.486;13.374;2023-07-31T07:49:33;4.57;;;2.80;;
3355;SDS011;1691;52.486;13.374;2023-07-31T07:52:01;3.13;;;1.70;;
3355;SDS011;1691;52.486;13.374;2023-07-31T07:54:29;2.40;;;2.20;;
3355;SDS011;1691;52.486;13.374;2023-07-31T07:56:57;7.17;;;6.10;;
3355;SDS011;1691;52.486;13.374;2023-07-31T07:59:24;5.63;;;2.77;;
3355;SDS011;1691;52.486;13.374;2023-07-31T08:01:50;5.07;;;3.07;;
3355;SDS011;1691;52.486;13.374;2023-07-31T08:04:17;2.23;;;1.83;;
3355;SDS011;1691;52.486;13.374;2023-07-31T08:06:44;3.20;;;2.10;;
3355;SDS011;1691;52.486;13.374;2023-07-31T08:09:11;2.00;;;1.90;;
3355;SDS011;1691;52.486;13.374;2023-07-31T08:11:38;5.93;;;2.00;;
3355;SDS011;1691;52.486;13.374;2023-07-31T08:14:04;1.50;;;1.40;;
3355;SDS011;1691;52.486;13.374;2023-07-31T08:16:31;4.20;;;2.33;;
3355;SDS011;1691;52.486;13.374;2023-07-31T08:18:58;4.43;;;1.60;;
3355;SDS011;1691;52.486;13.374;2023-07-31T08:21:25;1.93;;;1.80;;
3355;SDS011;1691;52.486;13.374;2023-07-31T08:23:52;2.23;;;2.13;;
3355;SDS011;1691;52.486;13.374;2023-07-31T08:26:19;2.10;;;2.00;;
3355;SDS011;1691;52.486;13.374;2023-07-31T08:28:47;2.50;;;2.40;;
3355;SDS011;1691;52.486;13.374;2023-07-31T08:31:13;2.17;;;2.07;;
3355;SDS011;1691;52.486;13.374;2023-07-31T08:33:41;5.60;;;2.00;;
3355;SDS011;1691;52.486;13.374;2023-07-31T08:36:07;3.87;;;2.00;;
3355;SDS011;1691;52.486;13.374;2023-07-31T08:38:34;2.17;;;2.07;;
3355;SDS011;1691;52.486;13.374;2023-07-31T08:41:02;2.27;;;2.17;;
3355;SDS011;1691;52.486;13.374;2023-07-31T08:43:30;2.27;;;2.03;;
3355;SDS011;1691;52.486;13.374;2023-07-31T08:45:58;2.10;;;2.00;;
3355;SDS011;1691;52.486;13.374;2023-07-31T08:48:25;2.10;;;2.00;;
3355;SDS011;1691;52.486;13.374;2023-07-31T08:50:53;2.70;;;2.50;;
3355;SDS011;1691;52.486;13.374;2023-07-31T08:53:21;2.47;;;2.00;;
3355;SDS011;1691;52.486;13.374;2023-07-31T08:55:48;2.77;;;1.63;;
3355;SDS011;1691;52.486;13.374;2023-07-31T08:58:16;4.60;;;2.10;;
3355;SDS011;1691;52.486;13.374;2023-07-31T09:00:45;5.30;;;2.40;;
3355;SDS011;1691;52.486;13.374;2023-07-31T09:03:14;2.20;;;2.10;;
3355;SDS011;1691;52.486;13.374;2023-07-31T09:05:46;2.17;;;1.90;;
3355;SDS011;1691;52.486;13.374;2023-07-31T09:08:14;5.83;;;2.40;;
3355;SDS011;1691;52.486;13.374;2023-07-31T09:10:44;3.30;;;1.53;;
3355;SDS011;1691;52.486;13.374;2023-07-31T09:13:13;5.10;;;1.43;;
3355;SDS011;1691;52.486;13.374;2023-07-31T09:15:40;1.40;;;1.30;;
3355;SDS011;1691;52.486;13.374;2023-07-31T09:18:11;1.43;;;1.33;;
3355;SDS011;1691;52.486;13.374;2023-07-31T09:20:37;3.77;;;1.40;;
3355;SDS011;1691;52.486;13.374;2023-07-31T09:23:05;2.23;;;1.77;;
3355;SDS011;1691;52.486;13.374;2023-07-31T09:25:40;5.30;;;4.87;;
3355;SDS011;1691;52.486;13.374;2023-07-31T09:28:10;2.10;;;1.73;;
3355;SDS011;1691;52.486;13.374;2023-07-31T09:30:45;3.27;;;1.40;;
3355;SDS011;1691;52.486;13.374;2023-07-31T09:33:17;1.60;;;1.50;;
3355;SDS011;1691;52.486;13.374;2023-07-31T09:35:44;6.30;;;1.30;;
3355;SDS011;1691;52.486;13.374;2023-07-31T09:38:14;4.13;;;1.20;;
3355;SDS011;1691;52.486;13.374;2023-07-31T09:40:42;1.73;;;1.63;;
3355;SDS011;1691;52.486;13.374;2023-07-31T09:43:13;1.67;;;1.10;;
3355;SDS011;1691;52.486;13.374;2023-07-31T09:45:45;1.90;;;1.30;;
3355;SDS011;1691;52.486;13.374;2023-07-31T09:48:13;2.40;;;0.90;;
3355;SDS011;1691;52.486;13.374;2023-07-31T09:50:46;3.60;;;0.90;;
3355;SDS011;1691;52.486;13.374;2023-07-31T09:53:15;1.13;;;1.03;;
3355;SDS011;1691;52.486;13.374;2023-07-31T09:55:43;1.60;;;1.50;;
3355;SDS011;1691;52.486;13.374;2023-07-31T09:58:11;1.13;;;1.03;;
3355;SDS011;1691;52.486;13.374;2023-07-31T10:00:39;1.13;;;1.03;;
3355;SDS011;1691;52.486;13.374;2023-07-31T10:03:10;1.30;;;1.20;;
3355;SDS011;1691;52.486;13.374;2023-07-31T10:05:40;1.40;;;1.30;;
3355;SDS011;1691;52.486;13.374;2023-07-31T10:08:12;1.80;;;1.70;;
3355;SDS011;1691;52.486;13.374;2023-07-31T10:10:42;1.90;;;1.80;;
3355;SDS011;1691;52.486;13.374;2023-07-31T10:13:11;3.43;;;1.63;;
3355;SDS011;1691;52.486;13.374;2023-07-31T10:15:41;2.90;;;2.07;;
3355;SDS011;1691;52.486;13.374;2023-07-31T10:18:10;2.87;;;2.20;;
3355;SDS011;1691;52.486;13.374;2023-07-31T10:20:37;2.63;;;2.43;;
3355;SDS011;1691;52.486;13.374;2023-07-31T10:23:04;4.40;;;2.00;;
3355;SDS011;1691;52.486;13.374;2023-07-31T10:25:33;5.33;;;2.50;;
3355;SDS011;1691;52.486;13.374;2023-07-31T10:28:01;4.83;;;3.27;;
3355;SDS011;1691;52.486;13.374;2023-07-31T10:30:29;7.50;;;3.37;;
3355;SDS011;1691;52.486;13.374;2023-07-31T10:32:58;6.97;;;2.87;;
3355;SDS011;1691;52.486;13.374;2023-07-31T10:35:27;6.13;;;3.80;;
3355;SDS011;1691;52.486;13.374;2023-07-31T10:37:54;7.83;;;3.60;;
3355;SDS011;1691;52.486;13.374;2023-07-31T10:40:24;5.70;;;3.20;;
3355;SDS011;1691;52.486;13.374;2023-07-31T10:42:53;4.97;;;3.13;;
3355;SDS011;1691;52.486;13.374;2023-07-31T10:45:25;2.87;;;2.57;;
3355;SDS011;1691;52.486;13.374;2023-07-31T10:48:02;10.83;;;2.97;;
3355;SDS011;1691;52.486;13.374;2023-07-31T10:50:31;3.97;;;3.17;;
3355;SDS011;1691;52.486;13.374;2023-07-31T10:53:02;7.20;;;2.17;;
3355;SDS011;1691;52.486;13.374;2023-07-31T11:00:33;4.87;;;2.80;;
3355;SDS011;1691;52.486;13.374;2023-07-31T11:03:06;2.60;;;2.40;;
3355;SDS011;1691;52.486;13.374;2023-07-31T11:08:20;4.20;;;3.03;;
3355;SDS011;1691;52.486;13.374;2023-07-31T11:13:28;2.33;;;2.23;;
3355;SDS011;1691;52.486;13.374;2023-07-31T11:15:55;3.20;;;2.80;;
3355;SDS011;1691;52.486;13.374;2023-07-31T11:18:22;3.00;;;2.57;;
3355;SDS011;1691;52.486;13.374;2023-07-31T11:20:49;3.03;;;2.47;;
3355;SDS011;1691;52.486;13.374;2023-07-31T11:23:16;2.93;;;2.60;;
3355;SDS011;1691;52.486;13.374;2023-07-31T11:25:43;3.67;;;2.10;;
3355;SDS011;1691;52.486;13.374;2023-07-31T11:28:15;2.80;;;2.57;;
3355;SDS011;1691;52.486;13.374;2023-07-31T11:30:43;3.20;;;2.50;;
3355;SDS011;1691;52.486;13.374;2023-07-31T11:33:12;3.17;;;2.80;;
3355;SDS011;1691;52.486;13.374;2023-07-31T11:35:46;3.00;;;2.70;;
3355;SDS011;1691;52.486;13.374;2023-07-31T11:38:25;3.37;;;3.07;;
3355;SDS011;1691;52.486;13.374;2023-07-31T11:40:53;2.50;;;2.20;;
3355;SDS011;1691;52.486;13.374;2023-07-31T11:43:31;3.30;;;2.87;;
3355;SDS011;1691;52.486;13.374;2023-07-31T11:45:59;4.73;;;3.17;;
3355;SDS011;1691;52.486;13.374;2023-07-31T11:48:30;2.90;;;2.10;;
3355;SDS011;1691;52.486;13.374;2023-07-31T11:51:00;5.57;;;2.60;;
3355;SDS011;1691;52.486;13.374;2023-07-31T11:53:35;3.10;;;2.43;;
3355;SDS011;1691;52.486;13.374;2023-07-31T11:56:12;4.70;;;4.30;;
3355;SDS011;1691;52.486;13.374;2023-07-31T11:58:40;3.23;;;3.03;;
3355;SDS011;1691;52.486;13.374;2023-07-31T12:01:09;3.50;;;2.50;;
3355;SDS011;1691;52.486;13.374;2023-07-31T12:03:36;3.27;;;2.40;;
3355;SDS011;1691;52.486;13.374;2023-07-31T12:06:03;3.97;;;3.33;;
3355;SDS011;1691;52.486;13.374;2023-07-31T12:08:30;3.30;;;2.27;;
3355;SDS011;1691;52.486;13.374;2023-07-31T12:11:02;4.07;;;2.83;;
3355;SDS011;1691;52.486;13.374;2023-07-31T12:13:30;2.63;;;2.53;;
3355;SDS011;1691;52.486;13.374;2023-07-31T12:16:02;3.30;;;3.00;;
3355;SDS011;1691;52.486;13.374;2023-07-31T12:18:33;5.50;;;2.30;;
3355;SDS011;1691;52.486;13.374;2023-07-31T12:21:02;3.57;;;2.93;;
3355;SDS011;1691;52.486;13.374;2023-07-31T12:23:33;3.43;;;3.13;;
3355;SDS011;1691;52.486;13.374;2023-07-31T12:26:02;4.03;;;3.20;;
3355;SDS011;1691;52.486;13.374;2023-07-31T12:28:37;3.53;;;3.00;;
3355;SDS011;1691;52.486;13.374;2023-07-31T12:31:11;2.20;;;2.00;;
3355;SDS011;1691;52.486;13.374;2023-07-31T12:33:43;5.53;;;2.60;;
3355;SDS011;1691;52.486;13.374;2023-07-31T12:36:11;3.73;;;2.77;;
3355;SDS011;1691;52.486;13.374;2023-07-31T12:38:40;2.67;;;2.47;;
3355;SDS011;1691;52.486;13.374;2023-07-31T12:41:08;10.50;;;2.60;;
3355;SDS011;1691;52.486;13.374;2023-07-31T12:43:43;2.90;;;2.70;;
3355;SDS011;1691;52.486;13.374;2023-07-31T12:46:10;4.40;;;2.73;;
3355;SDS011;1691;52.486;13.374;2023-07-31T12:48:38;8.30;;;6.43;;
3355;SDS011;1691;52.486;13.374;2023-07-31T12:51:05;2.73;;;2.63;;
3355;SDS011;1691;52.486;13.374;2023-07-31T12:53:34;2.63;;;2.43;;
3355;SDS011;1691;52.486;13.374;2023-07-31T12:56:01;2.07;;;1.97;;
3355;SDS011;1691;52.486;13.374;2023-07-31T12:58:29;2.20;;;1.77;;
3355;SDS011;1691;52.486;13.374;2023-07-31T13:00:56;1.80;;;1.70;;
3355;SDS011;1691;52.486;13.374;2023-07-31T13:03:22;2.70;;;2.10;;
3355;SDS011;1691;52.486;13.374;2023-07-31T13:05:50;2.07;;;1.97;;
3355;SDS011;1691;52.486;13.374;2023-07-31T13:08:18;1.60;;;1.50;;
3355;SDS011;1691;52.486;13.374;2023-07-31T13:10:45;1.67;;;1.57;;
3355;SDS011;1691;52.486;13.374;2023-07-31T13:13:12;2.33;;;1.73;;
3355;SDS011;1691;52.486;13.374;2023-07-31T13:15:39;2.30;;;2.20;;
3355;SDS011;1691;52.486;13.374;2023-07-31T13:18:06;1.73;;;1.63;;
3355;SDS011;1691;52.486;13.374;2023-07-31T13:20:33;4.27;;;2.03;;
3355;SDS011;1691;52.486;13.374;2023-07-31T13:23:00;2.53;;;2.40;;
3355;SDS011;1691;52.486;13.374;2023-07-31T13:25:26;2.33;;;1.97;;
3355;SDS011;1691;52.486;13.374;2023-07-31T13:27:54;3.27;;;2.03;;
3355;SDS011;1691;52.486;13.374;2023-07-31T13:30:21;3.57;;;2.50;;
3355;SDS011;1691;52.486;13.374;2023-07-31T13:32:48;3.70;;;3.03;;
3355;SDS011;1691;52.486;13.374;2023-07-31T13:35:15;4.53;;;3.13;;
3355;SDS011;1691;52.486;13.374;2023-07-31T13:37:42;7.63;;;2.63;;
3355;SDS011;1691;52.486;13.374;2023-07-31T13:40:09;4.47;;;2.93;;
3355;SDS011;1691;52.486;13.374;2023-07-31T13:42:36;4.13;;;3.00;;
3355;SDS011;1691;52.486;13.374;2023-07-31T13:45:03;4.60;;;2.80;;
3355;SDS011;1691;52.486;13.374;2023-07-31T13:47:33;7.60;;;2.77;;
3355;SDS011;1691;52.486;13.374;2023-07-31T13:50:01;3.23;;;2.90;;
3355;SDS011;1691;52.486;13.374;2023-07-31T13:52:28;4.00;;;3.70;;
3355;SDS011;1691;52.486;13.374;2023-07-31T13:54:54;2.73;;;2.53;;
3355;SDS011;1691;52.486;13.374;2023-07-31T13:57:21;7.03;;;3.03;;
3355;SDS011;1691;52.486;13.374;2023-07-31T13:59:50;3.13;;;2.87;;
3355;SDS011;1691;52.486;13.374;2023-07-31T14:02:17;2.67;;;2.50;;
3355;SDS011;1691;52.486;13.374;2023-07-31T14:04:44;3.10;;;2.60;;
3355;SDS011;1691;52.486;13.374;2023-07-31T14:07:10;5.00;;;3.40;;
3355;SDS011;1691;52.486;13.374;2023-07-31T14:09:37;3.63;;;3.27;;
3355;SDS011;1691;52.486;13.374;2023-07-31T14:12:04;3.50;;;2.80;;
3355;SDS011;1691;52.486;13.374;2023-07-31T14:14:32;2.77;;;2.67;;
3355;SDS011;1691;52.486;13.374;2023-07-31T14:17:00;4.70;;;2.40;;
3355;SDS011;1691;52.486;13.374;2023-07-31T14:19:28;2.90;;;2.67;;
3355;SDS011;1691;52.486;13.374;2023-07-31T14:21:57;3.17;;;2.97;;
3355;SDS011;1691;52.486;13.374;2023-07-31T14:24:37;6.33;;;3.53;;
3355;SDS011;1691;52.486;13.374;2023-07-31T14:27:04;2.90;;;2.70;;
3355;SDS011;1691;52.486;13.374;2023-07-31T14:29:31;3.10;;;2.90;;
3355;SDS011;1691;52.486;13.374;2023-07-31T14:31:58;3.10;;;2.90;;
3355;SDS011;1691;52.486;13.374;2023-07-31T14:34:26;3.20;;;3.00;;
3355;SDS011;1691;52.486;13.374;2023-07-31T14:36:53;8.60;;;2.50;;
3355;SDS011;1691;52.486;13.374;2023-07-31T14:39:20;3.10;;;2.90;;
3355;SDS011;1691;52.486;13.374;2023-07-31T14:41:47;5.73;;;2.63;;
3355;SDS011;1691;52.486;13.374;2023-07-31T14:44:14;5.57;;;3.47;;
3355;SDS011;1691;52.486;13.374;2023-07-31T14:46:41;10.83;;;8.20;;
3355;SDS011;1691;52.486;13.374;2023-07-31T14:49:09;4.60;;;2.60;;
3355;SDS011;1691;52.486;13.374;2023-07-31T14:51:35;2.53;;;2.40;;
3355;SDS011;1691;52.486;13.374;2023-07-31T14:54:02;2.97;;;2.70;;
3355;SDS011;1691;52.486;13.374;2023-07-31T14:56:29;6.50;;;2.30;;
3355;SDS011;1691;52.486;13.374;2023-07-31T14:58:56;2.90;;;2.60;;
3355;SDS011;1691;52.486;13.374;2023-07-31T15:01:23;2.40;;;2.20;;
3355;SDS011;1691;52.486;13.374;2023-07-31T15:03:50;2.87;;;2.67;;
3355;SDS011;1691;52.486;13.374;2023-07-31T15:06:17;3.63;;;2.57;;
3355;SDS011;1691;52.486;13.374;2023-07-31T15:08:44;5.10;;;3.07;;
3355;SDS011;1691;52.486;13.374;2023-07-31T15:11:11;2.90;;;2.70;;
3355;SDS011;1691;52.486;13.374;2023-07-31T15:13:38;4.77;;;2.83;;
3355;SDS011;1691;52.486;13.374;2023-07-31T15:16:05;3.00;;;2.80;;
3355;SDS011;1691;52.486;13.374;2023-07-31T15:18:32;3.57;;;2.80;;
3355;SDS011;1691;52.486;13.374;2023-07-31T15:20:59;9.13;;;3.23;;
3355;SDS011;1691;52.486;13.374;2023-07-31T15:23:26;3.77;;;3.40;;
3355;SDS011;1691;52.486;13.374;2023-07-31T15:25:52;3.20;;;2.90;;
3355;SDS011;1691;52.486;13.374;2023-07-31T15:28:19;3.13;;;2.70;;